Time;durP1;ratioP1;P1;durP2;ratioP2;P2;SDS_P1;SDS_P2;PMS_P1;PMS_P2;Temp;Humidity;BMP_temperature;BMP_pressure;BME280_temperature;BME280_humidity;BME280_pressure;Samples;Min_cycle;Max_cycle;Signal;HPM_P1;HPM_P2
2022/09/21 00:00:12;;;;;;;;;2.00;2.00;;;;;21.75;51.86;101262.66;110418;1265;12962;-56
2022/09/21 00:02:59;;;;;;;;;2.00;2.00;;;;;21.75;51.76;101265.49;110490;1264;12796;-56
2022/09/21 00:05:26;;;;;;;;;2.00;2.00;;;;;21.76;51.83;101265.80;110457;1264;13646;-58
2022/09/21 00:07:54;;;;;;;;;3.00;3.00;;;;;21.76;51.80;101269.77;110454;1264;13200;-55
2022/09/21 00:10:21;;;;;;;;;2.00;1.33;;;;;21.76;51.49;101270.68;110498;1264;14050;-59
2022/09/21 00:12:48;;;;;;;;;1.00;1.00;;;;;21.75;51.65;101269.27;110473;1264;13832;-58
2022/09/21 00:15:16;;;;;;;;;2.00;2.00;;;;;21.74;51.73;101268.83;110499;1263;12732;-55
2022/09/21 00:17:43;;;;;;;;;2.00;2.00;;;;;21.76;51.83;101271.09;110465;1264;14367;-59
2022/09/21 00:20:11;;;;;;;;;2.50;2.00;;;;;21.75;51.75;101271.70;110443;1265;13060;-59
2022/09/21 00:22:38;;;;;;;;;2.00;2.00;;;;;21.75;51.76;101273.71;110413;1264;14577;-56
2022/09/21 00:25:05;;;;;;;;;3.00;3.00;;;;;21.74;51.70;101272.85;110412;1264;14688;-57
2022/09/21 00:27:33;;;;;;;;;2.00;1.50;;;;;21.75;51.54;101275.85;110414;1264;14721;-55
2022/09/21 00:30:01;;;;;;;;;3.00;3.00;;;;;21.75;51.76;101272.65;110490;1264;13180;-56
2022/09/21 00:32:30;;;;;;;;;3.00;3.00;;;;;21.75;51.70;101277.73;110460;1264;14062;-57
2022/09/21 00:34:57;;;;;;;;;2.00;2.00;;;;;21.73;51.70;101275.19;110471;1264;14312;-58
2022/09/21 00:37:24;;;;;;;;;2.00;2.00;;;;;21.74;51.47;101276.92;110449;1264;14514;-57
2022/09/21 00:39:52;;;;;;;;;3.00;3.00;;;;;21.73;51.60;101275.35;110449;1263;14449;-58
2022/09/21 00:42:19;;;;;;;;;3.00;3.00;;;;;21.74;51.47;101273.77;110505;1264;12774;-58
2022/09/21 00:44:46;;;;;;;;;2.00;2.00;;;;;21.73;51.64;101273.20;110445;1264;12966;-58
2022/09/21 00:47:13;;;;;;;;;2.00;2.00;;;;;21.73;51.60;101272.28;110396;1265;14425;-58
2022/09/21 00:49:40;;;;;;;;;2.00;2.00;;;;;21.73;51.62;101270.61;110341;1266;14434;-55
2022/09/21 00:52:08;;;;;;;;;2.00;2.00;;;;;21.74;51.55;101275.31;110416;1264;12606;-59
2022/09/21 00:54:36;;;;;;;;;3.00;2.00;;;;;21.74;51.48;101280.33;111463;1264;14015;-56
2022/09/21 00:57:03;;;;;;;;;2.00;2.00;;;;;21.74;51.69;101284.15;110445;1265;13114;-55
2022/09/21 00:59:31;;;;;;;;;2.00;2.00;;;;;21.73;51.53;101280.17;110432;1264;13440;-59
2022/09/21 01:01:58;;;;;;;;;2.00;2.00;;;;;21.73;51.36;101289.02;110444;1264;14411;-59
2022/09/21 01:04:27;;;;;;;;;2.00;2.00;;;;;21.73;51.47;101284.33;110439;1264;13935;-56
2022/09/21 01:06:54;;;;;;;;;2.00;2.00;;;;;21.72;51.56;101285.93;110449;1264;14077;-57
2022/09/21 01:09:21;;;;;;;;;2.00;2.00;;;;;21.72;51.62;101288.63;110458;1264;13290;-60
2022/09/21 01:11:48;;;;;;;;;2.00;2.00;;;;;21.72;51.62;101290.98;110488;1264;12846;-57
2022/09/21 01:14:16;;;;;;;;;2.00;2.00;;;;;21.72;51.49;101287.88;110443;1264;14213;-55
2022/09/21 01:16:43;;;;;;;;;2.00;2.00;;;;;21.72;51.47;101288.25;110400;1264;13253;-58
2022/09/21 01:19:10;;;;;;;;;3.67;3.00;;;;;21.72;51.61;101286.27;110437;1264;13137;-58
2022/09/21 01:21:37;;;;;;;;;2.00;2.00;;;;;21.72;51.35;101288.98;110408;1264;13164;-58
2022/09/21 01:24:05;;;;;;;;;2.00;2.00;;;;;21.72;51.48;101288.05;110352;1264;12144;-58
2022/09/21 01:26:33;;;;;;;;;2.00;2.00;;;;;21.71;51.27;101290.34;110459;1264;13763;-59
2022/09/21 01:29:00;;;;;;;;;2.00;2.00;;;;;21.72;51.13;101292.92;110425;1264;14126;-59
2022/09/21 01:31:27;;;;;;;;;2.00;2.00;;;;;21.72;51.38;101294.08;110454;1264;13583;-60
2022/09/21 01:33:54;;;;;;;;;1.33;1.33;;;;;21.72;51.24;101294.63;110327;1267;13845;-57
2022/09/21 01:36:23;;;;;;;;;1.00;1.00;;;;;21.72;51.13;101294.80;110491;1264;12681;-60
2022/09/21 01:38:51;;;;;;;;;2.00;2.00;;;;;21.71;51.31;101294.53;110469;1264;14737;-58
2022/09/21 01:41:18;;;;;;;;;2.00;2.00;;;;;21.71;51.16;101296.33;110478;1265;13107;-58
2022/09/21 01:43:45;;;;;;;;;2.00;2.00;;;;;21.70;51.13;101299.02;110425;1264;13411;-58
2022/09/21 01:46:13;;;;;;;;;2.00;2.00;;;;;21.70;51.19;101297.17;110474;1265;13530;-57
2022/09/21 01:48:40;;;;;;;;;2.00;2.00;;;;;21.70;51.18;101300.30;110471;1264;14254;-57
2022/09/21 01:51:07;;;;;;;;;1.00;1.00;;;;;21.70;51.05;101303.73;110464;1264;12622;-57
2022/09/21 01:53:35;;;;;;;;;2.00;2.00;;;;;21.70;51.07;101303.52;110426;1265;13331;-56
2022/09/21 01:56:02;;;;;;;;;2.00;2.00;;;;;21.71;51.10;101305.65;110426;1264;13424;-56
2022/09/21 01:58:29;;;;;;;;;2.00;2.00;;;;;21.70;50.86;101305.54;110470;1265;13340;-60
2022/09/21 02:00:56;;;;;;;;;1.00;1.00;;;;;21.71;50.85;101310.18;110432;1264;13419;-58
2022/09/21 02:03:24;;;;;;;;;1.00;1.00;;;;;21.69;50.95;101309.08;110520;1264;13582;-59
2022/09/21 02:05:51;;;;;;;;;2.00;2.00;;;;;21.70;50.87;101312.89;110473;1264;13161;-55
2022/09/21 02:08:18;;;;;;;;;2.00;2.00;;;;;21.69;50.84;101311.29;110426;1264;13685;-59
2022/09/21 02:10:46;;;;;;;;;2.00;2.00;;;;;21.69;50.98;101312.08;110474;1265;13970;-58
2022/09/21 02:13:15;;;;;;;;;2.00;2.00;;;;;21.69;51.03;101313.34;110465;1264;13742;-60
2022/09/21 02:15:42;;;;;;;;;2.00;2.00;;;;;21.69;51.02;101314.43;110485;1264;12192;-56
2022/09/21 02:18:10;;;;;;;;;2.00;2.00;;;;;21.68;50.93;101313.44;110484;1264;19192;-57
2022/09/21 02:20:38;;;;;;;;;1.33;1.33;;;;;21.69;50.83;101321.12;110445;1264;13712;-60
2022/09/21 02:23:05;;;;;;;;;2.00;2.00;;;;;21.68;50.89;101316.14;110452;1265;14580;-60
2022/09/21 02:25:32;;;;;;;;;1.00;1.00;;;;;21.68;51.02;101318.36;110405;1264;13712;-55
2022/09/21 02:28:00;;;;;;;;;1.67;1.33;;;;;21.68;50.88;101315.80;110474;1264;14150;-60
2022/09/21 02:30:27;;;;;;;;;1.33;1.33;;;;;21.67;50.90;101317.13;110444;1264;13063;-58
2022/09/21 02:32:54;;;;;;;;;2.00;2.00;;;;;21.68;50.80;101317.09;110495;1264;12614;-58
2022/09/21 02:35:21;;;;;;;;;2.00;2.00;;;;;21.67;50.79;101308.57;110475;1264;13808;-60
2022/09/21 02:37:49;;;;;;;;;1.00;1.00;;;;;21.67;50.80;101313.17;110454;1264;13561;-59
2022/09/21 02:40:16;;;;;;;;;2.00;2.00;;;;;21.67;50.90;101311.23;110461;1264;13756;-57
2022/09/21 02:42:44;;;;;;;;;1.67;1.67;;;;;21.69;50.86;101316.75;110451;1265;13019;-57
2022/09/21 02:45:11;;;;;;;;;1.33;1.33;;;;;21.68;50.88;101318.39;110494;1264;12774;-58
2022/09/21 02:47:38;;;;;;;;;2.00;2.00;;;;;21.66;51.17;101321.64;110451;1264;13220;-56
2022/09/21 02:50:05;;;;;;;;;1.00;1.00;;;;;21.65;51.03;101323.03;110472;1264;12546;-58
2022/09/21 02:52:33;;;;;;;;;2.00;1.00;;;;;21.66;50.89;101324.06;110478;1264;20411;-59
2022/09/21 02:55:00;;;;;;;;;1.00;1.00;;;;;21.66;51.00;101328.39;110374;1264;13078;-60
2022/09/21 02:57:27;;;;;;;;;2.00;2.00;;;;;21.65;51.01;101331.63;110497;1264;11837;-59
2022/09/21 02:59:54;;;;;;;;;1.00;1.00;;;;;21.65;50.96;101338.14;110451;1264;13229;-57
2022/09/21 03:02:22;;;;;;;;;3.00;2.00;;;;;21.66;50.96;101341.18;110442;1265;12773;-59
2022/09/21 03:04:49;;;;;;;;;2.00;2.00;;;;;21.65;50.92;101345.02;110433;1264;13497;-59
2022/09/21 03:07:16;;;;;;;;;1.00;1.00;;;;;21.64;51.06;101345.46;110481;1264;13015;-58
2022/09/21 03:09:43;;;;;;;;;2.50;2.00;;;;;21.65;50.92;101351.06;110447;1264;13120;-56
2022/09/21 03:12:10;;;;;;;;;1.33;1.33;;;;;21.63;51.03;101352.34;110475;1264;13035;-57
2022/09/21 03:14:38;;;;;;;;;2.00;2.00;;;;;21.64;50.70;101354.08;110454;1265;12963;-57
2022/09/21 03:17:05;;;;;;;;;1.67;1.00;;;;;21.64;50.56;101354.60;110453;1264;13119;-57
2022/09/21 03:19:32;;;;;;;;;2.00;1.67;;;;;21.65;50.57;101356.31;110440;1264;14735;-56
2022/09/21 03:22:00;;;;;;;;;1.33;1.33;;;;;21.64;50.64;101358.96;110444;1264;13241;-58
2022/09/21 03:24:45;;;;;;;;;1.00;1.00;;;;;21.64;50.70;101361.70;110464;1264;13593;-59
2022/09/21 03:27:13;;;;;;;;;1.00;1.00;;;;;21.64;50.53;101361.17;110440;1264;12580;-56
2022/09/21 03:29:40;;;;;;;;;1.00;1.00;;;;;21.64;50.63;101360.80;110432;1264;13139;-57
2022/09/21 03:32:07;;;;;;;;;1.00;1.00;;;;;21.63;50.56;101364.52;110451;1264;13090;-58
2022/09/21 03:34:34;;;;;;;;;2.00;1.00;;;;;21.64;50.55;101366.50;110342;1264;13406;-57
2022/09/21 03:37:02;;;;;;;;;1.00;1.00;;;;;21.63;50.52;101365.95;110440;1265;13109;-59
2022/09/21 03:39:29;;;;;;;;;1.00;1.00;;;;;21.63;50.54;101365.48;110441;1264;12690;-58
2022/09/21 03:41:56;;;;;;;;;1.00;1.00;;;;;21.63;50.63;101364.92;110506;1264;13281;-59
2022/09/21 03:44:23;;;;;;;;;1.00;1.00;;;;;21.63;50.60;101364.17;110455;1265;16278;-55
2022/09/21 03:46:51;;;;;;;;;2.00;2.00;;;;;21.64;50.82;101364.11;110479;1264;12878;-57
2022/09/21 03:49:18;;;;;;;;;2.00;2.00;;;;;21.66;50.73;101362.45;110496;1264;12768;-57
2022/09/21 03:51:45;;;;;;;;;2.00;2.00;;;;;21.66;50.74;101365.29;110417;1264;17340;-59
2022/09/21 03:54:12;;;;;;;;;1.00;1.00;;;;;21.66;50.89;101364.92;110317;1264;12809;-60
2022/09/21 03:56:40;;;;;;;;;2.00;2.00;;;;;21.65;50.84;101363.41;110310;1264;13185;-59
2022/09/21 03:59:07;;;;;;;;;2.00;2.00;;;;;21.66;50.94;101363.92;110409;1264;14506;-59
2022/09/21 04:01:35;;;;;;;;;2.00;2.00;;;;;21.66;51.09;101366.82;110457;1264;13569;-55
2022/09/21 04:04:02;;;;;;;;;1.00;1.00;;;;;21.66;50.93;101365.89;110463;1265;14477;-53
2022/09/21 04:06:30;;;;;;;;;1.00;1.00;;;;;21.65;50.93;101372.70;110451;1264;13426;-59
2022/09/21 04:08:59;;;;;;;;;1.33;1.33;;;;;21.65;50.96;101373.60;110447;1264;12697;-58
2022/09/21 04:11:26;;;;;;;;;1.00;1.00;;;;;21.64;51.14;101374.41;110450;1264;13521;-57
2022/09/21 04:13:55;;;;;;;;;1.00;1.00;;;;;21.64;51.10;101376.42;110446;1264;13405;-60
2022/09/21 04:16:23;;;;;;;;;2.00;2.00;;;;;21.64;51.00;101375.88;110491;1264;13422;-58
2022/09/21 04:18:50;;;;;;;;;1.00;1.00;;;;;21.63;51.06;101373.59;110459;1264;12942;-58
2022/09/21 04:21:17;;;;;;;;;2.00;2.00;;;;;21.64;51.02;101376.59;110493;1265;12521;-59
2022/09/21 04:23:45;;;;;;;;;2.67;2.00;;;;;21.63;51.02;101376.52;110455;1265;12928;-58
2022/09/21 04:26:12;;;;;;;;;2.00;2.00;;;;;21.63;51.06;101376.59;110411;1264;13272;-59
2022/09/21 04:28:40;;;;;;;;;2.00;2.00;;;;;21.62;51.03;101380.27;110458;1264;13056;-57
2022/09/21 04:31:07;;;;;;;;;1.00;1.00;;;;;21.62;50.88;101383.55;110438;1265;15739;-57
2022/09/21 04:33:35;;;;;;;;;2.33;2.00;;;;;21.62;50.63;101384.05;110421;1265;13382;-56
2022/09/21 04:36:02;;;;;;;;;2.00;2.00;;;;;21.60;50.75;101380.45;110463;1264;12480;-59
2022/09/21 04:38:29;;;;;;;;;2.67;1.00;;;;;21.62;50.88;101387.02;110385;1264;13321;-59
2022/09/21 04:40:56;;;;;;;;;2.00;2.00;;;;;21.63;50.98;101386.23;110429;1264;14910;-57
2022/09/21 04:43:24;;;;;;;;;1.00;1.00;;;;;21.62;50.91;101387.33;110453;1264;15199;-57
2022/09/21 04:45:51;;;;;;;;;1.00;1.00;;;;;21.62;50.79;101385.89;110441;1264;15163;-59
2022/09/21 04:48:18;;;;;;;;;1.00;1.00;;;;;21.61;50.82;101390.16;110472;1265;16841;-55
2022/09/21 04:50:46;;;;;;;;;2.00;2.00;;;;;21.61;50.79;101390.91;110428;1264;14472;-58
2022/09/21 04:53:13;;;;;;;;;1.00;1.00;;;;;21.60;50.93;101392.07;110429;1264;15293;-58
2022/09/21 04:55:40;;;;;;;;;2.00;2.00;;;;;21.60;50.89;101391.36;110440;1264;14783;-56
2022/09/21 04:58:07;;;;;;;;;1.00;1.00;;;;;21.60;50.70;101397.58;110443;1264;17755;-58
2022/09/21 05:00:35;;;;;;;;;1.00;1.00;;;;;21.60;50.79;101397.56;110442;1264;14791;-57
2022/09/21 05:03:02;;;;;;;;;3.00;2.00;;;;;21.60;50.78;101399.92;110456;1264;12330;-57
2022/09/21 05:05:30;;;;;;;;;2.00;2.00;;;;;21.60;50.65;101401.19;110435;1264;14772;-59
2022/09/21 05:07:58;;;;;;;;;1.50;1.50;;;;;21.60;50.77;101405.92;110401;1264;14220;-54
2022/09/21 05:10:25;;;;;;;;;3.00;3.00;;;;;21.61;50.66;101410.98;110477;1264;14280;-58
2022/09/21 05:12:52;;;;;;;;;2.00;2.00;;;;;21.62;50.64;101416.29;110449;1264;13816;-60
2022/09/21 05:15:20;;;;;;;;;2.00;2.00;;;;;21.64;50.52;101416.29;110484;1264;12879;-57
2022/09/21 05:17:48;;;;;;;;;2.33;2.00;;;;;21.66;50.48;101421.66;110501;1264;14542;-59
2022/09/21 05:20:15;;;;;;;;;2.00;1.33;;;;;21.69;50.85;101427.33;110458;1264;15179;-60
2022/09/21 05:22:42;;;;;;;;;1.00;1.00;;;;;21.77;51.30;101435.18;110434;1264;14362;-59
2022/09/21 05:25:09;;;;;;;;;2.00;2.00;;;;;21.84;52.02;101433.14;110450;1264;14212;-58
2022/09/21 05:27:37;;;;;;;;;2.00;2.00;;;;;21.87;52.59;101435.75;110452;1264;14408;-59
2022/09/21 05:30:04;;;;;;;;;1.33;1.33;;;;;21.91;53.67;101436.96;110491;1264;12992;-60
2022/09/21 05:32:32;;;;;;;;;2.00;2.00;;;;;21.94;53.92;101437.40;110437;1265;14355;-59
2022/09/21 05:34:59;;;;;;;;;2.00;2.00;;;;;21.98;54.42;101437.41;110285;1264;14785;-59
2022/09/21 05:37:26;;;;;;;;;95.00;71.50;;;;;21.98;54.26;101438.40;110328;1264;13806;-61
2022/09/21 05:39:53;;;;;;;;;139.00;105.33;;;;;21.97;54.10;101438.47;110393;1264;14043;-58
2022/09/21 05:42:21;;;;;;;;;122.00;95.00;;;;;21.95;53.82;101438.91;110268;1264;11417;-59
2022/09/21 05:44:49;;;;;;;;;103.33;72.67;;;;;21.92;53.74;101442.14;110372;1264;14077;-54
2022/09/21 05:47:16;;;;;;;;;89.00;64.00;;;;;21.91;53.36;101440.20;110349;1264;13975;-57
2022/09/21 05:49:43;;;;;;;;;73.33;55.67;;;;;21.91;53.20;101444.40;110316;1264;15169;-56
2022/09/21 05:52:11;;;;;;;;;58.00;41.00;;;;;21.89;53.41;101440.45;110280;1264;14463;-56
2022/09/21 05:54:38;;;;;;;;;48.00;37.00;;;;;21.87;53.43;101442.27;110307;1265;13497;-61
2022/09/21 05:57:05;;;;;;;;;34.00;30.00;;;;;21.87;53.62;101446.64;110406;1264;13208;-57
2022/09/21 05:59:33;;;;;;;;;26.67;24.00;;;;;21.88;53.63;101443.08;110429;1264;13310;-56
2022/09/21 06:02:00;;;;;;;;;25.67;22.00;;;;;21.91;53.52;101447.13;110391;1264;13477;-57
2022/09/21 06:04:27;;;;;;;;;24.33;19.00;;;;;21.90;53.57;101441.98;110417;1265;18100;-60
2022/09/21 06:06:54;;;;;;;;;23.00;17.00;;;;;21.86;53.61;101443.32;110435;1264;14235;-58
2022/09/21 06:09:22;;;;;;;;;17.67;14.33;;;;;21.84;53.53;101440.98;110465;1264;13422;-57
2022/09/21 06:11:49;;;;;;;;;15.00;11.00;;;;;21.83;53.49;101451.10;110437;1264;14299;-58
2022/09/21 06:14:23;;;;;;;;;21.33;15.67;;;;;21.84;53.37;101454.98;110466;1264;14227;-60
2022/09/21 06:16:50;;;;;;;;;16.50;10.00;;;;;21.85;53.26;101458.70;110454;1265;14073;-58
2022/09/21 06:19:17;;;;;;;;;11.00;10.33;;;;;21.88;53.24;101460.77;110421;1264;14554;-58
2022/09/21 06:21:45;;;;;;;;;13.00;11.00;;;;;21.88;53.27;101460.16;110486;1264;14817;-57
2022/09/21 06:24:12;;;;;;;;;10.00;8.67;;;;;21.90;53.17;101458.89;110418;1264;13010;-58
2022/09/21 06:26:39;;;;;;;;;7.00;7.00;;;;;21.89;53.26;101461.18;110441;1264;14607;-56
2022/09/21 06:29:07;;;;;;;;;9.00;7.00;;;;;21.88;53.28;101460.40;110354;1264;14384;-58
2022/09/21 06:31:35;;;;;;;;;9.33;6.67;;;;;21.90;53.27;101462.55;110420;1264;15305;-58
2022/09/21 06:34:02;;;;;;;;;7.00;6.00;;;;;21.89;53.17;101461.70;110374;1264;14162;-55
2022/09/21 06:36:30;;;;;;;;;7.00;5.00;;;;;21.90;53.22;101464.32;110471;1264;13191;-59
2022/09/21 06:38:57;;;;;;;;;6.00;5.50;;;;;21.90;53.26;101466.20;110465;1265;13210;-58
2022/09/21 06:41:24;;;;;;;;;6.33;6.00;;;;;21.91;53.25;101464.86;110413;1264;14818;-57
2022/09/21 06:43:51;;;;;;;;;6.00;5.67;;;;;21.89;53.24;101468.89;110454;1264;14798;-58
2022/09/21 06:46:19;;;;;;;;;6.67;5.00;;;;;21.88;53.15;101469.98;110365;1264;14344;-56
2022/09/21 06:48:46;;;;;;;;;3.00;3.00;;;;;21.90;53.01;101469.77;110461;1264;14053;-57
2022/09/21 06:51:13;;;;;;;;;5.33;5.00;;;;;21.92;53.09;101473.98;110490;1264;13256;-57
2022/09/21 06:53:41;;;;;;;;;6.67;5.33;;;;;21.92;53.26;101471.73;110412;1264;15030;-57
2022/09/21 06:56:11;;;;;;;;;3.00;3.00;;;;;21.94;53.30;101474.09;110403;1264;13151;-57
2022/09/21 06:58:38;;;;;;;;;5.67;4.33;;;;;21.95;53.43;101476.00;110425;1265;14366;-57
2022/09/21 07:01:06;;;;;;;;;5.00;5.00;;;;;21.96;53.46;101479.04;110267;1264;13973;-58
2022/09/21 07:03:33;;;;;;;;;2.33;2.00;;;;;21.95;53.46;101475.05;110430;1264;13404;-57
2022/09/21 07:06:00;;;;;;;;;3.00;3.00;;;;;21.96;53.79;101479.02;110478;1264;12953;-56
2022/09/21 07:08:28;;;;;;;;;3.00;3.00;;;;;21.97;53.75;101480.73;110433;1264;13290;-60
2022/09/21 07:10:55;;;;;;;;;3.00;3.00;;;;;22.00;53.90;101479.69;110361;1263;13204;-58
2022/09/21 07:13:22;;;;;;;;;2.00;2.00;;;;;22.02;53.99;101479.02;110433;1264;13387;-58
2022/09/21 07:15:49;;;;;;;;;2.67;2.67;;;;;22.10;54.01;101485.61;110443;1264;14202;-58
2022/09/21 07:18:17;;;;;;;;;1.67;1.33;;;;;22.19;53.98;101484.88;110482;1264;12702;-58
2022/09/21 07:20:47;;;;;;;;;4.33;3.00;;;;;22.26;53.80;101486.13;110421;1265;13330;-57
2022/09/21 07:23:14;;;;;;;;;2.00;2.00;;;;;22.28;53.59;101481.48;110390;1264;13122;-54
2022/09/21 07:25:42;;;;;;;;;2.00;2.00;;;;;22.32;53.50;101483.53;110377;1264;12542;-57
2022/09/21 07:28:10;;;;;;;;;3.00;2.00;;;;;22.37;53.46;101488.08;110443;1264;13049;-60
2022/09/21 07:30:37;;;;;;;;;2.50;2.50;;;;;22.38;53.37;101492.45;110421;1265;13282;-61
2022/09/21 07:33:04;;;;;;;;;2.00;2.00;;;;;22.38;53.29;101494.02;110297;1265;13063;-59
2022/09/21 07:35:31;;;;;;;;;6.00;5.00;;;;;22.45;53.18;101493.61;110307;1264;169231;-59
2022/09/21 07:37:59;;;;;;;;;3.00;2.50;;;;;22.45;53.07;101497.48;110413;1265;13644;-56
2022/09/21 07:40:26;;;;;;;;;3.00;3.00;;;;;22.44;53.13;101497.44;110441;1264;13430;-59
2022/09/21 07:42:53;;;;;;;;;3.00;3.00;;;;;22.45;53.09;101500.95;110468;1262;13687;-58
2022/09/21 07:45:20;;;;;;;;;12.67;10.33;;;;;22.26;52.53;101495.23;110474;1264;13063;-57
2022/09/21 07:47:48;;;;;;;;;10.00;7.33;;;;;22.12;52.04;101494.71;110435;1265;13164;-57
2022/09/21 07:50:15;;;;;;;;;10.00;6.50;;;;;22.22;51.43;101495.13;110423;1264;13615;-60
2022/09/21 07:52:42;;;;;;;;;3.67;3.00;;;;;22.04;50.99;101496.23;110235;1264;13151;-61
2022/09/21 07:55:10;;;;;;;;;4.00;3.00;;;;;21.85;50.74;101497.85;110396;1263;13631;-58
2022/09/21 08:00:22;;;;;;;;;2.33;2.33;;;;;21.63;50.36;101500.39;110444;1264;12875;-59
2022/09/21 08:02:49;;;;;;;;;6.33;5.00;;;;;21.62;50.13;101495.98;110363;1264;13430;-59
2022/09/21 08:05:17;;;;;;;;;7.00;5.67;;;;;21.56;50.02;101491.80;110415;1264;13661;-59
2022/09/21 08:07:44;;;;;;;;;6.00;6.00;;;;;21.60;49.74;101491.03;110370;1264;15290;-60
2022/09/21 08:10:11;;;;;;;;;6.00;5.00;;;;;21.63;49.46;101494.38;110426;1264;16473;-60
2022/09/21 08:12:39;;;;;;;;;5.00;5.00;;;;;21.60;49.38;101490.92;110448;1264;13418;-59
2022/09/21 08:15:06;;;;;;;;;3.00;3.00;;;;;21.56;49.25;101490.40;110476;1264;12745;-58
2022/09/21 08:17:35;;;;;;;;;5.00;5.00;;;;;21.54;49.17;101488.94;110421;1265;13987;-59
2022/09/21 08:20:02;;;;;;;;;4.33;4.33;;;;;21.62;49.02;101491.55;110397;1265;13814;-60
2022/09/21 08:22:29;;;;;;;;;3.00;3.00;;;;;21.64;48.93;101492.61;110455;1265;12927;-60
2022/09/21 08:24:56;;;;;;;;;3.00;3.00;;;;;21.70;48.80;101497.34;110464;1264;13050;-56
2022/09/21 08:27:24;;;;;;;;;3.00;3.00;;;;;21.70;48.86;101498.05;110483;1264;13197;-61
2022/09/21 08:29:51;;;;;;;;;7.00;5.00;;;;;21.63;48.78;101496.94;110330;1264;12448;-59
2022/09/21 08:32:18;;;;;;;;;4.00;3.00;;;;;21.48;48.79;101499.61;110302;1264;13713;-57
2022/09/21 08:34:46;;;;;;;;;3.00;3.00;;;;;21.44;48.75;101502.04;110319;1265;13874;-56
2022/09/21 08:37:14;;;;;;;;;3.00;3.00;;;;;21.36;48.99;101498.70;110430;1264;13213;-59
2022/09/21 08:39:41;;;;;;;;;3.00;3.00;;;;;21.57;48.97;101505.54;110291;1265;13800;-55
2022/09/21 08:42:08;;;;;;;;;2.00;2.00;;;;;21.82;48.65;101501.21;110452;1264;12959;-57
2022/09/21 08:44:36;;;;;;;;;2.67;2.67;;;;;22.02;48.58;101497.83;110365;1264;13604;-61
2022/09/21 08:47:03;;;;;;;;;2.00;2.00;;;;;22.11;48.56;101501.00;110390;1265;18086;-59
2022/09/21 08:49:30;;;;;;;;;2.00;2.00;;;;;22.12;48.62;101505.28;110486;1263;13518;-58
2022/09/21 08:51:57;;;;;;;;;2.00;2.00;;;;;22.14;48.85;101506.75;110454;1264;13776;-60
2022/09/21 08:54:25;;;;;;;;;2.00;2.00;;;;;22.15;49.04;101498.64;110489;1264;13071;-57
2022/09/21 08:56:52;;;;;;;;;2.00;2.00;;;;;22.17;49.23;101499.55;110419;1264;13650;-59
2022/09/21 08:59:20;;;;;;;;;2.00;2.00;;;;;22.16;49.38;101499.48;110428;1265;12932;-58
2022/09/21 09:01:47;;;;;;;;;3.00;3.00;;;;;22.15;49.59;101497.55;110414;1264;13175;-61
2022/09/21 09:04:15;;;;;;;;;2.33;2.00;;;;;22.14;49.77;101495.25;110411;1264;13227;-57
2022/09/21 09:06:43;;;;;;;;;1.00;1.00;;;;;22.15;49.92;101499.83;110459;1264;13472;-60
2022/09/21 09:09:11;;;;;;;;;2.00;2.00;;;;;22.17;50.06;101497.85;110421;1264;12391;-61
2022/09/21 09:11:38;;;;;;;;;1.00;1.00;;;;;22.16;50.20;101493.78;110368;1264;13269;-59
2022/09/21 09:14:05;;;;;;;;;1.00;1.00;;;;;22.16;50.31;101493.02;110341;1264;12967;-60
2022/09/21 09:16:33;;;;;;;;;2.00;2.00;;;;;22.18;50.16;101488.39;110383;1265;13595;-55
2022/09/21 09:19:00;;;;;;;;;1.67;1.67;;;;;21.95;49.25;101491.05;110417;1263;13760;-59
2022/09/21 09:21:27;;;;;;;;;2.00;2.00;;;;;21.74;48.83;101493.40;110456;1264;12456;-58
2022/09/21 09:23:54;;;;;;;;;2.67;2.67;;;;;21.53;48.76;101497.14;110387;1264;15290;-59
2022/09/21 09:26:21;;;;;;;;;2.00;2.00;;;;;21.42;48.62;101501.38;110405;1264;13043;-57
2022/09/21 09:28:49;;;;;;;;;3.00;3.00;;;;;21.36;48.88;101502.85;110400;1264;13434;-60
2022/09/21 09:31:16;;;;;;;;;3.00;3.00;;;;;21.32;48.31;101504.52;110398;1264;13050;-55
2022/09/21 09:33:44;;;;;;;;;5.00;3.00;;;;;21.24;47.90;101503.85;110385;1264;13308;-58
2022/09/21 09:36:11;;;;;;;;;8.00;6.00;;;;;21.14;47.69;101508.89;110502;1264;12674;-59
2022/09/21 09:38:38;;;;;;;;;3.00;3.00;;;;;20.66;47.57;101505.98;110443;1264;13233;-59
2022/09/21 09:41:06;;;;;;;;;5.00;5.00;;;;;19.30;49.52;101509.75;110416;1264;13181;-57
2022/09/21 09:43:33;;;;;;;;;5.00;5.00;;;;;18.86;50.91;101505.88;110419;1264;13296;-57
2022/09/21 09:46:00;;;;;;;;;4.00;4.00;;;;;18.37;51.75;101508.26;110437;1265;13340;-57
2022/09/21 09:48:27;;;;;;;;;6.00;4.00;;;;;18.38;52.14;101507.83;110459;1264;16639;-57
2022/09/21 09:50:55;;;;;;;;;4.00;4.00;;;;;18.42;51.94;101508.51;110423;1264;12652;-55
2022/09/21 09:53:22;;;;;;;;;4.00;4.00;;;;;18.37;52.25;101510.99;110436;1264;13193;-57
2022/09/21 09:55:49;;;;;;;;;5.00;5.00;;;;;18.58;52.16;101505.05;110382;1264;12909;-57
2022/09/21 09:58:17;;;;;;;;;4.00;4.00;;;;;18.58;52.33;101508.28;110436;1264;13351;-58
2022/09/21 10:00:44;;;;;;;;;2.00;2.00;;;;;18.88;51.74;101504.35;110341;1264;16585;-58
2022/09/21 10:03:11;;;;;;;;;3.00;2.00;;;;;18.89;51.19;101504.50;110408;1264;12626;-60
2022/09/21 10:05:40;;;;;;;;;2.00;2.00;;;;;18.90;51.03;101503.82;110446;1264;13065;-57
2022/09/21 10:08:07;;;;;;;;;2.00;2.00;;;;;18.99;51.07;101506.42;110436;1264;13920;-59
2022/09/21 10:10:35;;;;;;;;;4.00;4.00;;;;;19.18;50.67;101500.07;110455;1265;12616;-59
2022/09/21 10:13:02;;;;;;;;;2.00;2.00;;;;;19.22;50.41;101501.14;110436;1264;13091;-57
2022/09/21 10:15:29;;;;;;;;;4.00;4.00;;;;;19.12;50.76;101500.87;110502;1264;12995;-60
2022/09/21 10:17:56;;;;;;;;;5.00;2.00;;;;;19.24;50.61;101500.58;110453;1264;12945;-59
2022/09/21 10:20:24;;;;;;;;;5.00;5.00;;;;;19.24;50.62;101499.31;110400;1265;13211;-55
2022/09/21 10:22:51;;;;;;;;;13.33;9.67;;;;;19.30;50.84;101497.65;110453;1264;13429;-58
2022/09/21 10:25:18;;;;;;;;;2.00;2.00;;;;;19.40;50.80;101499.15;110466;1263;12965;-56
2022/09/21 10:27:46;;;;;;;;;5.00;4.00;;;;;19.10;51.32;101501.90;110475;1264;13155;-56
2022/09/21 10:30:13;;;;;;;;;4.33;4.33;;;;;18.99;51.60;101502.31;110431;1264;13620;-57
2022/09/21 10:32:41;;;;;;;;;4.00;4.00;;;;;18.75;52.38;101507.09;110370;1264;12619;-58
2022/09/21 10:35:09;;;;;;;;;2.00;2.00;;;;;18.65;52.52;101508.35;110409;1264;14732;-57
2022/09/21 10:37:37;;;;;;;;;4.67;4.00;;;;;18.72;51.89;101506.84;110424;1264;15497;-57
2022/09/21 10:40:04;;;;;;;;;4.00;4.00;;;;;18.65;52.05;101506.59;110448;1264;14559;-59
2022/09/21 10:42:32;;;;;;;;;2.00;2.00;;;;;19.17;51.43;101506.85;110453;1264;13190;-59
2022/09/21 10:44:59;;;;;;;;;2.00;2.00;;;;;19.76;50.31;101509.05;110443;1264;15108;-58
2022/09/21 10:47:26;;;;;;;;;2.00;2.00;;;;;20.19;49.69;101505.15;110419;1264;14915;-57
2022/09/21 10:49:54;;;;;;;;;5.00;4.00;;;;;20.54;49.11;101510.99;110413;1264;14062;-60
2022/09/21 10:52:21;;;;;;;;;2.67;2.00;;;;;20.79;49.02;101505.92;110436;1264;15138;-61
2022/09/21 10:54:50;;;;;;;;;2.00;2.00;;;;;20.93;49.10;101507.42;110419;1264;15046;-56
2022/09/21 10:57:18;;;;;;;;;2.00;2.00;;;;;21.08;48.88;101507.40;110457;1265;12934;-59
2022/09/21 10:59:45;;;;;;;;;4.00;4.00;;;;;21.19;48.82;101505.17;110388;1264;14884;-58
2022/09/21 11:02:12;;;;;;;;;3.33;2.00;;;;;21.26;48.72;101505.25;110215;1264;12427;-60
2022/09/21 11:04:39;;;;;;;;;4.00;4.00;;;;;21.32;48.66;101503.27;110325;1264;13274;-59
2022/09/21 11:07:07;;;;;;;;;4.00;4.00;;;;;21.32;48.81;101498.40;110368;1264;14867;-60
2022/09/21 11:09:34;;;;;;;;;3.33;2.00;;;;;21.26;48.85;101500.70;110408;1264;13051;-60
2022/09/21 11:12:02;;;;;;;;;4.00;2.00;;;;;21.18;48.73;101500.23;110346;1264;14306;-59
2022/09/21 11:14:30;;;;;;;;;2.00;2.00;;;;;21.12;48.77;101503.97;110331;1264;15031;-58
2022/09/21 11:16:57;;;;;;;;;40.33;38.67;;;;;21.11;48.72;101504.77;110402;1264;14795;-60